sensor_id;sensor_type;location;lat;lon;timestamp;temperature;humidity
7846;DHT22;3968;51.424;6.788;2022-11-13T00:01:09;9.10;99.90
7846;DHT22;3968;51.424;6.788;2022-11-13T00:03:36;9.10;99.90
7846;DHT22;3968;51.424;6.788;2022-11-13T00:06:02;9.10;99.90
7846;DHT22;3968;51.424;6.788;2022-11-13T00:08:29;9.00;99.90
7846;DHT22;3968;51.424;6.788;2022-11-13T00:11:02;9.00;99.90
7846;DHT22;3968;51.424;6.788;2022-11-13T00:13:28;8.90;99.90
7846;DHT22;3968;51.424;6.788;2022-11-13T00:16:03;8.90;99.90
7846;DHT22;3968;51.424;6.788;2022-11-13T00:18:29;8.90;99.90
7846;DHT22;3968;51.424;6.788;2022-11-13T00:21:45;8.80;99.90
7846;DHT22;3968;51.424;6.788;2022-11-13T00:23:52;8.80;99.90
7846;DHT22;3968;51.424;6.788;2022-11-13T00:26:20;8.80;99.90
7846;DHT22;3968;51.424;6.788;2022-11-13T00:29:00;8.70;99.90
7846;DHT22;3968;51.424;6.788;2022-11-13T00:31:27;8.70;99.90
7846;DHT22;3968;51.424;6.788;2022-11-13T00:33:54;8.70;99.90
7846;DHT22;3968;51.424;6.788;2022-11-13T00:36:23;8.60;99.90
7846;DHT22;3968;51.424;6.788;2022-11-13T00:38:50;8.60;99.90
7846;DHT22;3968;51.424;6.788;2022-11-13T00:41:16;8.60;99.90
7846;DHT22;3968;51.424;6.788;2022-11-13T00:43:42;8.60;99.90
7846;DHT22;3968;51.424;6.788;2022-11-13T00:46:10;8.60;99.90
7846;DHT22;3968;51.424;6.788;2022-11-13T00:48:37;8.60;99.90
7846;DHT22;3968;51.424;6.788;2022-11-13T00:51:03;8.60;99.90
7846;DHT22;3968;51.424;6.788;2022-11-13T00:53:29;8.60;99.90
7846;DHT22;3968;51.424;6.788;2022-11-13T00:55:54;8.60;99.90
7846;DHT22;3968;51.424;6.788;2022-11-13T00:58:21;8.60;99.90
7846;DHT22;3968;51.424;6.788;2022-11-13T01:00:47;8.60;99.90
7846;DHT22;3968;51.424;6.788;2022-11-13T01:03:14;8.60;99.90
7846;DHT22;3968;51.424;6.788;2022-11-13T01:05:42;8.50;99.90
7846;DHT22;3968;51.424;6.788;2022-11-13T01:08:09;8.60;99.90
7846;DHT22;3968;51.424;6.788;2022-11-13T01:10:40;8.60;99.90
7846;DHT22;3968;51.424;6.788;2022-11-13T01:13:06;8.60;99.90
7846;DHT22;3968;51.424;6.788;2022-11-13T01:15:32;8.60;99.90
7846;DHT22;3968;51.424;6.788;2022-11-13T01:17:58;8.60;99.90
7846;DHT22;3968;51.424;6.788;2022-11-13T01:20:24;8.50;99.90
7846;DHT22;3968;51.424;6.788;2022-11-13T01:22:50;8.50;99.90
7846;DHT22;3968;51.424;6.788;2022-11-13T01:25:17;8.50;99.90
7846;DHT22;3968;51.424;6.788;2022-11-13T01:27:43;8.40;99.90
7846;DHT22;3968;51.424;6.788;2022-11-13T01:30:09;8.40;99.90
7846;DHT22;3968;51.424;6.788;2022-11-13T01:32:38;8.40;99.90
7846;DHT22;3968;51.424;6.788;2022-11-13T01:35:04;8.50;99.90
7846;DHT22;3968;51.424;6.788;2022-11-13T01:37:29;8.50;99.90
7846;DHT22;3968;51.424;6.788;2022-11-13T01:39:55;8.50;99.90
7846;DHT22;3968;51.424;6.788;2022-11-13T01:42:21;8.50;99.90
7846;DHT22;3968;51.424;6.788;2022-11-13T01:44:56;8.50;99.90
7846;DHT22;3968;51.424;6.788;2022-11-13T01:47:22;8.50;99.90
7846;DHT22;3968;51.424;6.788;2022-11-13T01:49:52;8.50;99.90
7846;DHT22;3968;51.424;6.788;2022-11-13T01:52:22;8.50;99.90
7846;DHT22;3968;51.424;6.788;2022-11-13T01:55:02;8.50;99.90
7846;DHT22;3968;51.424;6.788;2022-11-13T01:57:28;8.50;99.90
7846;DHT22;3968;51.424;6.788;2022-11-13T02:00:00;8.60;99.90
7846;DHT22;3968;51.424;6.788;2022-11-13T02:02:27;8.50;99.90
7846;DHT22;3968;51.424;6.788;2022-11-13T02:04:53;8.50;99.90
7846;DHT22;3968;51.424;6.788;2022-11-13T02:07:20;8.50;99.90
7846;DHT22;3968;51.424;6.788;2022-11-13T02:09:48;8.50;99.90
7846;DHT22;3968;51.424;6.788;2022-11-13T02:12:19;8.50;99.90
7846;DHT22;3968;51.424;6.788;2022-11-13T02:14:49;8.60;99.90
7846;DHT22;3968;51.424;6.788;2022-11-13T02:17:22;8.60;99.90
7846;DHT22;3968;51.424;6.788;2022-11-13T02:19:54;8.50;99.90
7846;DHT22;3968;51.424;6.788;2022-11-13T02:25:36;8.50;99.90
7846;DHT22;3968;51.424;6.788;2022-11-13T02:28:02;8.50;99.90
7846;DHT22;3968;51.424;6.788;2022-11-13T02:30:30;8.50;99.90
7846;DHT22;3968;51.424;6.788;2022-11-13T02:32:57;8.50;99.90
7846;DHT22;3968;51.424;6.788;2022-11-13T02:35:28;8.50;99.90
7846;DHT22;3968;51.424;6.788;2022-11-13T02:37:56;8.50;99.90
7846;DHT22;3968;51.424;6.788;2022-11-13T02:40:23;8.50;99.90
7846;DHT22;3968;51.424;6.788;2022-11-13T02:42:49;8.40;99.90
7846;DHT22;3968;51.424;6.788;2022-11-13T02:45:15;8.50;99.90
7846;DHT22;3968;51.424;6.788;2022-11-13T02:47:41;8.40;99.90
7846;DHT22;3968;51.424;6.788;2022-11-13T02:50:08;8.40;99.90
7846;DHT22;3968;51.424;6.788;2022-11-13T02:52:34;8.30;99.90
7846;DHT22;3968;51.424;6.788;2022-11-13T02:55:00;8.30;99.90
7846;DHT22;3968;51.424;6.788;2022-11-13T02:57:26;8.30;99.90
7846;DHT22;3968;51.424;6.788;2022-11-13T02:59:51;8.30;99.90
7846;DHT22;3968;51.424;6.788;2022-11-13T03:02:17;8.30;99.90
7846;DHT22;3968;51.424;6.788;2022-11-13T03:04:43;8.30;99.90
7846;DHT22;3968;51.424;6.788;2022-11-13T03:07:11;8.30;99.90
7846;DHT22;3968;51.424;6.788;2022-11-13T03:09:38;8.30;99.90
7846;DHT22;3968;51.424;6.788;2022-11-13T03:12:04;8.30;99.90
7846;DHT22;3968;51.424;6.788;2022-11-13T03:14:30;8.30;99.90
7846;DHT22;3968;51.424;6.788;2022-11-13T03:16:55;8.30;99.90
7846;DHT22;3968;51.424;6.788;2022-11-13T03:19:21;8.30;99.90
7846;DHT22;3968;51.424;6.788;2022-11-13T03:21:47;8.30;99.90
7846;DHT22;3968;51.424;6.788;2022-11-13T03:24:12;8.30;99.90
7846;DHT22;3968;51.424;6.788;2022-11-13T03:26:38;8.20;99.90
7846;DHT22;3968;51.424;6.788;2022-11-13T03:29:04;8.20;99.90
7846;DHT22;3968;51.424;6.788;2022-11-13T03:31:29;8.10;99.90
7846;DHT22;3968;51.424;6.788;2022-11-13T03:33:55;8.10;99.90
7846;DHT22;3968;51.424;6.788;2022-11-13T03:36:21;8.10;99.90
7846;DHT22;3968;51.424;6.788;2022-11-13T03:38:46;8.10;99.90
7846;DHT22;3968;51.424;6.788;2022-11-13T03:41:12;8.00;99.90
7846;DHT22;3968;51.424;6.788;2022-11-13T03:43:41;8.00;99.90
7846;DHT22;3968;51.424;6.788;2022-11-13T03:46:07;7.90;99.90
7846;DHT22;3968;51.424;6.788;2022-11-13T03:48:33;7.90;99.90
7846;DHT22;3968;51.424;6.788;2022-11-13T03:50:58;8.00;99.90
7846;DHT22;3968;51.424;6.788;2022-11-13T03:53:24;8.00;99.90
7846;DHT22;3968;51.424;6.788;2022-11-13T03:55:50;8.00;99.90
7846;DHT22;3968;51.424;6.788;2022-11-13T03:58:16;8.00;99.90
7846;DHT22;3968;51.424;6.788;2022-11-13T04:00:43;8.00;99.90
7846;DHT22;3968;51.424;6.788;2022-11-13T04:03:08;8.00;99.90
7846;DHT22;3968;51.424;6.788;2022-11-13T04:05:34;7.90;99.90
7846;DHT22;3968;51.424;6.788;2022-11-13T04:08:00;7.80;99.90
7846;DHT22;3968;51.424;6.788;2022-11-13T04:10:26;7.80;99.90
7846;DHT22;3968;51.424;6.788;2022-11-13T04:12:52;7.80;99.90
7846;DHT22;3968;51.424;6.788;2022-11-13T04:15:17;7.70;99.90
7846;DHT22;3968;51.424;6.788;2022-11-13T04:17:43;7.70;99.90
7846;DHT22;3968;51.424;6.788;2022-11-13T04:20:09;7.70;99.90
7846;DHT22;3968;51.424;6.788;2022-11-13T04:22:35;7.70;99.90
7846;DHT22;3968;51.424;6.788;2022-11-13T04:25:01;7.60;99.90
7846;DHT22;3968;51.424;6.788;2022-11-13T04:27:26;7.60;99.90
7846;DHT22;3968;51.424;6.788;2022-11-13T04:29:52;7.60;99.90
7846;DHT22;3968;51.424;6.788;2022-11-13T04:32:18;7.70;99.90
7846;DHT22;3968;51.424;6.788;2022-11-13T04:34:43;7.60;99.90
7846;DHT22;3968;51.424;6.788;2022-11-13T04:37:09;7.60;99.90
7846;DHT22;3968;51.424;6.788;2022-11-13T04:39:35;7.60;99.90
7846;DHT22;3968;51.424;6.788;2022-11-13T04:42:00;7.60;99.90
7846;DHT22;3968;51.424;6.788;2022-11-13T04:44:44;7.60;99.90
7846;DHT22;3968;51.424;6.788;2022-11-13T04:47:10;7.70;99.90
7846;DHT22;3968;51.424;6.788;2022-11-13T04:49:36;7.60;99.90
7846;DHT22;3968;51.424;6.788;2022-11-13T04:52:01;7.60;99.90
7846;DHT22;3968;51.424;6.788;2022-11-13T04:54:27;7.60;99.90
7846;DHT22;3968;51.424;6.788;2022-11-13T04:56:52;7.50;99.90
7846;DHT22;3968;51.424;6.788;2022-11-13T04:59:18;7.50;99.90
7846;DHT22;3968;51.424;6.788;2022-11-13T05:01:44;7.50;99.90
7846;DHT22;3968;51.424;6.788;2022-11-13T05:04:12;7.40;99.90
7846;DHT22;3968;51.424;6.788;2022-11-13T05:06:38;7.40;99.90
7846;DHT22;3968;51.424;6.788;2022-11-13T05:09:03;7.40;99.90
7846;DHT22;3968;51.424;6.788;2022-11-13T05:11:29;7.50;99.90
7846;DHT22;3968;51.424;6.788;2022-11-13T05:13:55;7.50;99.90
7846;DHT22;3968;51.424;6.788;2022-11-13T05:16:20;7.40;99.90
7846;DHT22;3968;51.424;6.788;2022-11-13T05:18:46;7.40;99.90
7846;DHT22;3968;51.424;6.788;2022-11-13T05:21:12;7.40;99.90
7846;DHT22;3968;51.424;6.788;2022-11-13T05:23:37;7.40;99.90
7846;DHT22;3968;51.424;6.788;2022-11-13T05:26:09;7.40;99.90
7846;DHT22;3968;51.424;6.788;2022-11-13T05:28:35;7.30;99.90
7846;DHT22;3968;51.424;6.788;2022-11-13T05:31:10;7.30;99.90
7846;DHT22;3968;51.424;6.788;2022-11-13T05:33:36;7.30;99.90
7846;DHT22;3968;51.424;6.788;2022-11-13T05:36:04;7.20;99.90
7846;DHT22;3968;51.424;6.788;2022-11-13T05:38:31;7.30;99.90
7846;DHT22;3968;51.424;6.788;2022-11-13T05:41:05;7.20;99.90
7846;DHT22;3968;51.424;6.788;2022-11-13T05:43:31;7.20;99.90
7846;DHT22;3968;51.424;6.788;2022-11-13T05:46:09;7.30;99.90
7846;DHT22;3968;51.424;6.788;2022-11-13T05:48:35;7.30;99.90
7846;DHT22;3968;51.424;6.788;2022-11-13T05:51:05;7.20;99.90
7846;DHT22;3968;51.424;6.788;2022-11-13T05:53:32;7.30;99.90
7846;DHT22;3968;51.424;6.788;2022-11-13T05:56:06;7.30;99.90
7846;DHT22;3968;51.424;6.788;2022-11-13T05:58:32;7.20;99.90
7846;DHT22;3968;51.424;6.788;2022-11-13T06:01:15;7.30;99.90
7846;DHT22;3968;51.424;6.788;2022-11-13T06:03:42;7.20;99.90
7846;DHT22;3968;51.424;6.788;2022-11-13T06:06:11;7.20;99.90
7846;DHT22;3968;51.424;6.788;2022-11-13T06:08:38;7.20;99.90
7846;DHT22;3968;51.424;6.788;2022-11-13T06:11:07;7.10;99.90
7846;DHT22;3968;51.424;6.788;2022-11-13T06:13:33;7.10;99.90
7846;DHT22;3968;51.424;6.788;2022-11-13T06:16:04;7.10;99.90
7846;DHT22;3968;51.424;6.788;2022-11-13T06:18:30;7.10;99.90
7846;DHT22;3968;51.424;6.788;2022-11-13T06:21:03;7.10;99.90
7846;DHT22;3968;51.424;6.788;2022-11-13T06:23:32;7.10;99.90
7846;DHT22;3968;51.424;6.788;2022-11-13T06:26:02;7.10;99.90
7846;DHT22;3968;51.424;6.788;2022-11-13T06:28:28;7.10;99.90
7846;DHT22;3968;51.424;6.788;2022-11-13T06:30:54;7.10;99.90
7846;DHT22;3968;51.424;6.788;2022-11-13T06:33:20;7.10;99.90
7846;DHT22;3968;51.424;6.788;2022-11-13T06:35:45;7.10;99.90
7846;DHT22;3968;51.424;6.788;2022-11-13T06:38:11;7.00;99.90
7846;DHT22;3968;51.424;6.788;2022-11-13T06:40:37;6.90;99.90
7846;DHT22;3968;51.424;6.788;2022-11-13T06:43:03;6.90;99.90
7846;DHT22;3968;51.424;6.788;2022-11-13T06:45:29;7.00;99.90
7846;DHT22;3968;51.424;6.788;2022-11-13T06:47:54;7.00;99.90
7846;DHT22;3968;51.424;6.788;2022-11-13T06:50:20;6.90;99.90
7846;DHT22;3968;51.424;6.788;2022-11-13T06:52:46;6.90;99.90
7846;DHT22;3968;51.424;6.788;2022-11-13T06:55:11;7.00;99.90
7846;DHT22;3968;51.424;6.788;2022-11-13T06:57:37;7.00;99.90
7846;DHT22;3968;51.424;6.788;2022-11-13T07:00:03;7.00;99.90
7846;DHT22;3968;51.424;6.788;2022-11-13T07:02:29;6.90;99.90
7846;DHT22;3968;51.424;6.788;2022-11-13T07:04:55;6.90;99.90
7846;DHT22;3968;51.424;6.788;2022-11-13T07:07:21;6.90;99.90
7846;DHT22;3968;51.424;6.788;2022-11-13T07:09:46;6.90;99.90
7846;DHT22;3968;51.424;6.788;2022-11-13T07:12:12;6.90;99.90
7846;DHT22;3968;51.424;6.788;2022-11-13T07:14:38;6.90;99.90
7846;DHT22;3968;51.424;6.788;2022-11-13T07:17:03;6.90;99.90
7846;DHT22;3968;51.424;6.788;2022-11-13T07:19:29;6.90;99.90
7846;DHT22;3968;51.424;6.788;2022-11-13T07:21:55;6.80;99.90
7846;DHT22;3968;51.424;6.788;2022-11-13T07:24:20;6.90;99.90
7846;DHT22;3968;51.424;6.788;2022-11-13T07:26:46;6.90;99.90
7846;DHT22;3968;51.424;6.788;2022-11-13T07:29:11;6.90;99.90
7846;DHT22;3968;51.424;6.788;2022-11-13T07:31:37;6.90;99.90
7846;DHT22;3968;51.424;6.788;2022-11-13T07:34:03;7.00;99.90
7846;DHT22;3968;51.424;6.788;2022-11-13T07:36:28;7.00;99.90
7846;DHT22;3968;51.424;6.788;2022-11-13T07:38:54;7.00;99.90
7846;DHT22;3968;51.424;6.788;2022-11-13T07:41:20;7.00;99.90
7846;DHT22;3968;51.424;6.788;2022-11-13T07:43:45;7.00;99.90
7846;DHT22;3968;51.424;6.788;2022-11-13T07:46:11;7.00;99.90
7846;DHT22;3968;51.424;6.788;2022-11-13T07:48:37;7.00;99.90
7846;DHT22;3968;51.424;6.788;2022-11-13T07:51:03;7.00;99.90
7846;DHT22;3968;51.424;6.788;2022-11-13T07:53:29;7.00;99.90
7846;DHT22;3968;51.424;6.788;2022-11-13T07:55:55;7.00;99.90
7846;DHT22;3968;51.424;6.788;2022-11-13T07:58:20;7.10;99.90
7846;DHT22;3968;51.424;6.788;2022-11-13T08:00:46;7.10;99.90
7846;DHT22;3968;51.424;6.788;2022-11-13T08:03:14;7.00;99.90
7846;DHT22;3968;51.424;6.788;2022-11-13T08:05:41;7.10;99.90
7846;DHT22;3968;51.424;6.788;2022-11-13T08:08:10;7.10;99.90
7846;DHT22;3968;51.424;6.788;2022-11-13T08:10:38;7.10;99.90
7846;DHT22;3968;51.424;6.788;2022-11-13T08:13:06;7.10;99.90
7846;DHT22;3968;51.424;6.788;2022-11-13T08:15:33;7.10;99.90
7846;DHT22;3968;51.424;6.788;2022-11-13T08:18:01;7.20;99.90
7846;DHT22;3968;51.424;6.788;2022-11-13T08:20:30;7.30;99.90
7846;DHT22;3968;51.424;6.788;2022-11-13T08:22:57;7.30;99.90
7846;DHT22;3968;51.424;6.788;2022-11-13T08:25:24;7.30;99.90
7846;DHT22;3968;51.424;6.788;2022-11-13T08:27:53;7.30;99.90
7846;DHT22;3968;51.424;6.788;2022-11-13T08:30:19;7.40;99.90
7846;DHT22;3968;51.424;6.788;2022-11-13T08:32:47;7.50;99.90
7846;DHT22;3968;51.424;6.788;2022-11-13T08:35:12;7.40;99.90
7846;DHT22;3968;51.424;6.788;2022-11-13T08:37:39;7.40;99.90
7846;DHT22;3968;51.424;6.788;2022-11-13T08:40:05;7.50;99.90
7846;DHT22;3968;51.424;6.788;2022-11-13T08:42:31;7.60;99.90
7846;DHT22;3968;51.424;6.788;2022-11-13T08:44:56;7.70;99.90
7846;DHT22;3968;51.424;6.788;2022-11-13T08:47:22;7.70;99.90
7846;DHT22;3968;51.424;6.788;2022-11-13T08:49:48;7.80;99.90
7846;DHT22;3968;51.424;6.788;2022-11-13T08:52:14;7.80;99.90
7846;DHT22;3968;51.424;6.788;2022-11-13T08:54:40;7.80;99.90
7846;DHT22;3968;51.424;6.788;2022-11-13T08:57:06;7.90;99.90
7846;DHT22;3968;51.424;6.788;2022-11-13T08:59:32;7.90;99.90
7846;DHT22;3968;51.424;6.788;2022-11-13T09:01:57;8.00;99.90
7846;DHT22;3968;51.424;6.788;2022-11-13T09:04:25;8.00;99.90
7846;DHT22;3968;51.424;6.788;2022-11-13T09:06:51;8.00;99.90
7846;DHT22;3968;51.424;6.788;2022-11-13T09:09:18;8.10;99.90
7846;DHT22;3968;51.424;6.788;2022-11-13T09:11:44;8.10;99.90
7846;DHT22;3968;51.424;6.788;2022-11-13T09:14:10;8.10;99.90
7846;DHT22;3968;51.424;6.788;2022-11-13T09:16:35;8.20;99.90
7846;DHT22;3968;51.424;6.788;2022-11-13T09:19:02;8.30;99.90
7846;DHT22;3968;51.424;6.788;2022-11-13T09:21:28;8.30;99.90
7846;DHT22;3968;51.424;6.788;2022-11-13T09:23:55;8.40;99.90
7846;DHT22;3968;51.424;6.788;2022-11-13T09:26:20;8.40;99.90
7846;DHT22;3968;51.424;6.788;2022-11-13T09:28:46;8.50;99.90
7846;DHT22;3968;51.424;6.788;2022-11-13T09:31:12;8.50;99.90
7846;DHT22;3968;51.424;6.788;2022-11-13T09:33:37;8.60;99.90
7846;DHT22;3968;51.424;6.788;2022-11-13T09:36:12;8.60;99.90
7846;DHT22;3968;51.424;6.788;2022-11-13T09:38:39;8.60;99.90
7846;DHT22;3968;51.424;6.788;2022-11-13T09:41:09;8.70;99.90
7846;DHT22;3968;51.424;6.788;2022-11-13T09:43:58;8.70;99.90
7846;DHT22;3968;51.424;6.788;2022-11-13T09:49:28;8.90;99.90
7846;DHT22;3968;51.424;6.788;2022-11-13T09:51:57;8.90;99.90
7846;DHT22;3968;51.424;6.788;2022-11-13T09:54:24;8.90;99.90
7846;DHT22;3968;51.424;6.788;2022-11-13T10:02:09;9.10;99.90
7846;DHT22;3968;51.424;6.788;2022-11-13T10:12:27;9.40;99.90
7846;DHT22;3968;51.424;6.788;2022-11-13T10:14:56;9.50;99.90
7846;DHT22;3968;51.424;6.788;2022-11-13T10:17:39;9.60;99.90
7846;DHT22;3968;51.424;6.788;2022-11-13T10:20:21;9.70;99.90
7846;DHT22;3968;51.424;6.788;2022-11-13T10:22:49;9.80;99.90
7846;DHT22;3968;51.424;6.788;2022-11-13T10:25:24;9.90;99.90
7846;DHT22;3968;51.424;6.788;2022-11-13T10:27:58;9.90;99.90
7846;DHT22;3968;51.424;6.788;2022-11-13T10:30:24;10.00;99.90
7846;DHT22;3968;51.424;6.788;2022-11-13T10:32:51;10.10;99.90
7846;DHT22;3968;51.424;6.788;2022-11-13T10:37:54;10.20;99.90
7846;DHT22;3968;51.424;6.788;2022-11-13T10:40:45;10.40;99.90
7846;DHT22;3968;51.424;6.788;2022-11-13T10:45:42;10.60;99.90
7846;DHT22;3968;51.424;6.788;2022-11-13T10:48:29;10.70;99.90
7846;DHT22;3968;51.424;6.788;2022-11-13T10:53:25;11.00;99.90
7846;DHT22;3968;51.424;6.788;2022-11-13T10:55:53;11.00;99.90
7846;DHT22;3968;51.424;6.788;2022-11-13T10:58:20;11.10;99.90
7846;DHT22;3968;51.424;6.788;2022-11-13T11:00:47;11.10;99.90
7846;DHT22;3968;51.424;6.788;2022-11-13T11:05:54;11.40;99.90
7846;DHT22;3968;51.424;6.788;2022-11-13T11:08:40;11.50;99.90
7846;DHT22;3968;51.424;6.788;2022-11-13T11:11:13;11.50;99.90
7846;DHT22;3968;51.424;6.788;2022-11-13T11:14:21;11.50;99.90
7846;DHT22;3968;51.424;6.788;2022-11-13T11:16:48;11.60;99.90
7846;DHT22;3968;51.424;6.788;2022-11-13T11:19:18;11.60;99.90
7846;DHT22;3968;51.424;6.788;2022-11-13T11:21:47;11.90;99.90
7846;DHT22;3968;51.424;6.788;2022-11-13T11:24:22;12.00;99.90
7846;DHT22;3968;51.424;6.788;2022-11-13T11:27:16;12.00;99.90
7846;DHT22;3968;51.424;6.788;2022-11-13T11:29:47;12.00;99.90
7846;DHT22;3968;51.424;6.788;2022-11-13T11:35:19;12.00;99.90
7846;DHT22;3968;51.424;6.788;2022-11-13T11:37:56;12.00;99.90
7846;DHT22;3968;51.424;6.788;2022-11-13T11:41:02;12.00;99.90
7846;DHT22;3968;51.424;6.788;2022-11-13T11:43:47;12.10;99.90
7846;DHT22;3968;51.424;6.788;2022-11-13T11:46:21;12.20;99.90
7846;DHT22;3968;51.424;6.788;2022-11-13T11:48:47;12.20;99.90
7846;DHT22;3968;51.424;6.788;2022-11-13T11:56:49;12.40;99.90
7846;DHT22;3968;51.424;6.788;2022-11-13T12:02:15;12.50;99.90
7846;DHT22;3968;51.424;6.788;2022-11-13T12:10:34;12.50;99.90
7846;DHT22;3968;51.424;6.788;2022-11-13T12:18:31;12.60;99.90
7846;DHT22;3968;51.424;6.788;2022-11-13T12:21:28;12.60;99.90
7846;DHT22;3968;51.424;6.788;2022-11-13T12:33:10;12.80;99.90
7846;DHT22;3968;51.424;6.788;2022-11-13T12:35:38;12.80;99.10
7846;DHT22;3968;51.424;6.788;2022-11-13T12:41:20;13.00;98.40
7846;DHT22;3968;51.424;6.788;2022-11-13T12:46:50;13.10;87.00
7846;DHT22;3968;51.424;6.788;2022-11-13T12:51:57;13.10;79.90
7846;DHT22;3968;51.424;6.788;2022-11-13T12:54:31;13.20;77.80
7846;DHT22;3968;51.424;6.788;2022-11-13T12:57:07;13.20;71.70
7846;DHT22;3968;51.424;6.788;2022-11-13T13:10:32;13.40;82.20
7846;DHT22;3968;51.424;6.788;2022-11-13T13:16:00;13.40;79.70
7846;DHT22;3968;51.424;6.788;2022-11-13T13:18:32;13.50;81.10
7846;DHT22;3968;51.424;6.788;2022-11-13T13:21:15;13.60;80.70
7846;DHT22;3968;51.424;6.788;2022-11-13T13:23:47;13.60;81.90
7846;DHT22;3968;51.424;6.788;2022-11-13T13:26:20;13.60;83.70
7846;DHT22;3968;51.424;6.788;2022-11-13T13:29:00;13.70;83.00
7846;DHT22;3968;51.424;6.788;2022-11-13T13:31:52;13.70;82.50
7846;DHT22;3968;51.424;6.788;2022-11-13T13:45:39;13.80;73.00
7846;DHT22;3968;51.424;6.788;2022-11-13T13:48:10;13.80;91.20
7846;DHT22;3968;51.424;6.788;2022-11-13T13:50:44;13.80;72.10
7846;DHT22;3968;51.424;6.788;2022-11-13T13:53:16;13.70;71.30
7846;DHT22;3968;51.424;6.788;2022-11-13T13:55:47;13.90;66.90
7846;DHT22;3968;51.424;6.788;2022-11-13T13:58:17;14.00;67.60
7846;DHT22;3968;51.424;6.788;2022-11-13T14:00:57;14.00;73.90
7846;DHT22;3968;51.424;6.788;2022-11-13T14:03:24;14.10;75.20
7846;DHT22;3968;51.424;6.788;2022-11-13T14:05:51;14.10;81.30
7846;DHT22;3968;51.424;6.788;2022-11-13T14:08:19;14.10;88.40
7846;DHT22;3968;51.424;6.788;2022-11-13T14:10:45;14.20;91.80
7846;DHT22;3968;51.424;6.788;2022-11-13T14:13:25;14.20;97.50
7846;DHT22;3968;51.424;6.788;2022-11-13T14:16:07;14.10;99.90
7846;DHT22;3968;51.424;6.788;2022-11-13T14:18:34;14.10;99.90
7846;DHT22;3968;51.424;6.788;2022-11-13T14:21:09;14.00;99.90
7846;DHT22;3968;51.424;6.788;2022-11-13T14:23:42;14.00;99.90
7846;DHT22;3968;51.424;6.788;2022-11-13T14:26:09;14.00;99.90
7846;DHT22;3968;51.424;6.788;2022-11-13T14:31:13;14.00;99.90
7846;DHT22;3968;51.424;6.788;2022-11-13T14:33:47;14.00;99.90
7846;DHT22;3968;51.424;6.788;2022-11-13T14:36:15;14.00;99.90
7846;DHT22;3968;51.424;6.788;2022-11-13T14:38:48;13.90;99.90
7846;DHT22;3968;51.424;6.788;2022-11-13T14:41:44;13.90;99.90
7846;DHT22;3968;51.424;6.788;2022-11-13T14:44:11;13.90;99.90
7846;DHT22;3968;51.424;6.788;2022-11-13T14:46:39;13.80;99.90
7846;DHT22;3968;51.424;6.788;2022-11-13T14:49:36;13.80;99.90
7846;DHT22;3968;51.424;6.788;2022-11-13T14:52:02;13.90;99.90
7846;DHT22;3968;51.424;6.788;2022-11-13T14:54:32;13.90;99.90
7846;DHT22;3968;51.424;6.788;2022-11-13T14:57:12;13.90;99.90
7846;DHT22;3968;51.424;6.788;2022-11-13T14:59:39;13.80;99.90
7846;DHT22;3968;51.424;6.788;2022-11-13T15:02:09;13.80;99.90
7846;DHT22;3968;51.424;6.788;2022-11-13T15:04:35;13.70;99.90
7846;DHT22;3968;51.424;6.788;2022-11-13T15:07:17;13.60;99.90
7846;DHT22;3968;51.424;6.788;2022-11-13T15:09:43;13.60;99.90
7846;DHT22;3968;51.424;6.788;2022-11-13T15:12:11;13.50;99.90
7846;DHT22;3968;51.424;6.788;2022-11-13T15:14:38;13.40;99.90
7846;DHT22;3968;51.424;6.788;2022-11-13T15:17:09;13.40;99.90
7846;DHT22;3968;51.424;6.788;2022-11-13T15:19:38;13.40;99.90
7846;DHT22;3968;51.424;6.788;2022-11-13T15:22:09;13.40;99.90
7846;DHT22;3968;51.424;6.788;2022-11-13T15:24:35;13.40;99.90
7846;DHT22;3968;51.424;6.788;2022-11-13T15:27:01;13.40;99.90
7846;DHT22;3968;51.424;6.788;2022-11-13T15:29:27;13.50;99.90
7846;DHT22;3968;51.424;6.788;2022-11-13T15:31:52;13.40;99.90
7846;DHT22;3968;51.424;6.788;2022-11-13T15:34:19;13.40;99.90
7846;DHT22;3968;51.424;6.788;2022-11-13T15:36:44;13.40;99.90
7846;DHT22;3968;51.424;6.788;2022-11-13T15:39:11;13.30;99.90
7846;DHT22;3968;51.424;6.788;2022-11-13T15:41:37;13.30;99.90
7846;DHT22;3968;51.424;6.788;2022-11-13T15:44:09;13.20;99.90
7846;DHT22;3968;51.424;6.788;2022-11-13T15:46:36;13.20;99.90
7846;DHT22;3968;51.424;6.788;2022-11-13T15:49:01;13.10;99.90
7846;DHT22;3968;51.424;6.788;2022-11-13T15:54:29;13.00;99.90
7846;DHT22;3968;51.424;6.788;2022-11-13T15:56:55;13.00;99.90
7846;DHT22;3968;51.424;6.788;2022-11-13T15:59:21;12.90;99.90
7846;DHT22;3968;51.424;6.788;2022-11-13T16:01:46;12.90;99.90
7846;DHT22;3968;51.424;6.788;2022-11-13T16:04:12;12.80;99.90
7846;DHT22;3968;51.424;6.788;2022-11-13T16:06:40;12.80;99.90
7846;DHT22;3968;51.424;6.788;2022-11-13T16:09:12;12.80;99.90
7846;DHT22;3968;51.424;6.788;2022-11-13T16:11:38;12.70;99.90
7846;DHT22;3968;51.424;6.788;2022-11-13T16:14:04;12.70;99.90
7846;DHT22;3968;51.424;6.788;2022-11-13T16:16:34;12.60;99.90
7846;DHT22;3968;51.424;6.788;2022-11-13T16:19:01;12.60;99.90
7846;DHT22;3968;51.424;6.788;2022-11-13T16:21:28;12.60;99.90
7846;DHT22;3968;51.424;6.788;2022-11-13T16:23:54;12.60;99.90
7846;DHT22;3968;51.424;6.788;2022-11-13T16:26:25;12.50;99.90
7846;DHT22;3968;51.424;6.788;2022-11-13T16:28:52;12.50;99.90
7846;DHT22;3968;51.424;6.788;2022-11-13T16:31:19;12.50;99.90
7846;DHT22;3968;51.424;6.788;2022-11-13T16:33:45;12.50;99.90
7846;DHT22;3968;51.424;6.788;2022-11-13T16:36:15;12.40;99.90
7846;DHT22;3968;51.424;6.788;2022-11-13T16:38:42;12.40;99.90
7846;DHT22;3968;51.424;6.788;2022-11-13T16:41:10;12.40;99.90
7846;DHT22;3968;51.424;6.788;2022-11-13T16:43:36;12.30;99.90
7846;DHT22;3968;51.424;6.788;2022-11-13T16:46:25;12.30;99.90
7846;DHT22;3968;51.424;6.788;2022-11-13T16:48:52;12.20;99.90
7846;DHT22;3968;51.424;6.788;2022-11-13T16:51:18;12.20;99.90
7846;DHT22;3968;51.424;6.788;2022-11-13T16:53:43;12.20;99.90
7846;DHT22;3968;51.424;6.788;2022-11-13T16:56:14;12.20;99.90
7846;DHT22;3968;51.424;6.788;2022-11-13T16:58:41;12.20;99.90
7846;DHT22;3968;51.424;6.788;2022-11-13T17:01:16;12.10;99.90
7846;DHT22;3968;51.424;6.788;2022-11-13T17:03:43;12.10;99.90
7846;DHT22;3968;51.424;6.788;2022-11-13T17:06:20;12.10;99.90
7846;DHT22;3968;51.424;6.788;2022-11-13T17:08:50;12.00;99.90
7846;DHT22;3968;51.424;6.788;2022-11-13T17:11:16;12.00;99.90
7846;DHT22;3968;51.424;6.788;2022-11-13T17:13:42;12.00;99.90
7846;DHT22;3968;51.424;6.788;2022-11-13T17:16:10;11.90;99.90
7846;DHT22;3968;51.424;6.788;2022-11-13T17:18:37;11.90;99.90
7846;DHT22;3968;51.424;6.788;2022-11-13T17:21:03;11.90;99.90
7846;DHT22;3968;51.424;6.788;2022-11-13T17:23:29;11.90;99.90
7846;DHT22;3968;51.424;6.788;2022-11-13T17:25:55;11.90;99.90
7846;DHT22;3968;51.424;6.788;2022-11-13T17:28:20;11.80;99.90
7846;DHT22;3968;51.424;6.788;2022-11-13T17:30:46;11.80;99.90
7846;DHT22;3968;51.424;6.788;2022-11-13T17:33:14;11.80;99.90
7846;DHT22;3968;51.424;6.788;2022-11-13T17:35:40;11.80;99.90
7846;DHT22;3968;51.424;6.788;2022-11-13T17:38:05;11.80;99.90
7846;DHT22;3968;51.424;6.788;2022-11-13T17:40:31;11.70;99.90
7846;DHT22;3968;51.424;6.788;2022-11-13T17:42:57;11.70;99.90
7846;DHT22;3968;51.424;6.788;2022-11-13T17:45:22;11.70;99.90
7846;DHT22;3968;51.424;6.788;2022-11-13T17:47:48;11.70;99.90
7846;DHT22;3968;51.424;6.788;2022-11-13T17:50:14;11.60;99.90
7846;DHT22;3968;51.424;6.788;2022-11-13T17:52:40;11.70;99.90
7846;DHT22;3968;51.424;6.788;2022-11-13T17:55:06;11.70;99.90
7846;DHT22;3968;51.424;6.788;2022-11-13T17:57:35;11.70;99.90
7846;DHT22;3968;51.424;6.788;2022-11-13T18:00:01;11.80;99.90
7846;DHT22;3968;51.424;6.788;2022-11-13T18:02:26;11.80;99.90